Time;durP1;ratioP1;P1;durP2;ratioP2;P2;SDS_P1;SDS_P2;PMS_P1;PMS_P2;Temp;Humidity;BMP_temperature;BMP_pressure;BME280_temperature;BME280_humidity;BME280_pressure;Samples;Min_cycle;Max_cycle;Signal;HPM_P1;HPM_P2
2022/11/20 00:00:46;;;;;;;0.82;0.73;;;;;;;6.20;37.55;91703.97;5074679;28;20036;-75
2022/11/20 00:03:12;;;;;;;1.13;0.90;;;;;;;6.17;37.24;91702.69;5073297;28;20044;-76
2022/11/20 00:05:38;;;;;;;1.10;0.65;;;;;;;6.14;38.60;91707.66;5093279;28;20051;-76
2022/11/20 00:08:04;;;;;;;1.83;1.20;;;;;;;6.15;38.08;91714.41;5091716;28;20070;-76
2022/11/20 00:10:30;;;;;;;1.10;0.68;;;;;;;6.03;38.54;91718.19;5093166;28;20039;-76
2022/11/20 00:12:57;;;;;;;1.15;0.98;;;;;;;5.96;38.77;91707.31;5094561;28;20304;-76
2022/11/20 00:15:22;;;;;;;1.15;0.80;;;;;;;5.91;38.60;91712.53;5075664;28;20078;-76
2022/11/20 00:17:48;;;;;;;0.70;0.70;;;;;;;5.98;38.85;91723.41;5094126;28;20113;-76
2022/11/20 00:20:14;;;;;;;0.88;0.65;;;;;;;6.03;38.03;91705.19;5075091;28;20032;-75
2022/11/20 00:22:39;;;;;;;0.85;0.80;;;;;;;6.04;38.33;91719.72;5076322;28;20035;-75
2022/11/20 00:25:05;;;;;;;1.13;0.80;;;;;;;6.05;38.09;91717.88;5088180;28;20490;-76
2022/11/20 00:27:31;;;;;;;0.88;0.80;;;;;;;6.03;38.07;91722.56;5082660;28;20035;-75
2022/11/20 00:29:56;;;;;;;0.90;0.80;;;;;;;6.07;37.96;91712.41;5092549;28;20036;-75
2022/11/20 00:32:22;;;;;;;2.38;0.85;;;;;;;5.91;38.63;91717.75;5092816;28;20032;-75
2022/11/20 00:34:47;;;;;;;1.58;0.70;;;;;;;5.96;38.21;91728.09;5092357;28;20344;-75
2022/11/20 00:37:13;;;;;;;0.70;0.70;;;;;;;6.00;38.94;91728.34;5067958;28;20131;-76
2022/11/20 00:39:38;;;;;;;3.40;1.80;;;;;;;5.94;39.21;91737.19;5070754;28;20032;-76
2022/11/20 00:42:04;;;;;;;1.33;0.98;;;;;;;5.92;38.52;91736.69;5092481;28;20028;-76
2022/11/20 00:44:29;;;;;;;2.42;1.05;;;;;;;5.87;39.43;91740.13;5091129;28;20036;-76
2022/11/20 00:46:55;;;;;;;1.30;0.90;;;;;;;5.79;39.42;91738.91;5090909;28;20326;-76
2022/11/20 00:49:20;;;;;;;0.93;0.70;;;;;;;5.73;39.61;91736.63;5093823;28;20024;-75
2022/11/20 00:51:46;;;;;;;3.05;0.88;;;;;;;5.67;39.69;91733.28;5092640;28;20054;-76
2022/11/20 00:54:11;;;;;;;1.25;0.90;;;;;;;5.71;39.68;91736.91;5092384;28;20063;-76
2022/11/20 00:56:37;;;;;;;0.70;0.70;;;;;;;5.80;39.85;91729.28;5088410;28;20550;-76
2022/11/20 00:59:02;;;;;;;1.33;0.88;;;;;;;5.63;40.51;91740.88;5073553;28;20465;-75
2022/11/20 01:01:31;;;;;;;0.52;0.52;;;;;;;5.56;40.68;91735.22;5073502;28;20036;-75
2022/11/20 01:03:59;;;;;;;0.80;0.70;;;;;;;5.51;40.31;91732.66;5072023;28;20037;-75
2022/11/20 01:06:33;;;;;;;0.98;0.88;;;;;;;5.58;40.08;91742.72;5071524;28;20028;-76
2022/11/20 01:09:02;;;;;;;0.90;0.80;;;;;;;5.61;40.12;91735.19;5090947;28;20032;-75
2022/11/20 01:11:36;;;;;;;0.90;0.80;;;;;;;5.53;40.67;91727.19;5083995;28;20486;-76
2022/11/20 01:14:05;;;;;;;0.88;0.88;;;;;;;5.45;41.02;91749.34;5089472;28;20036;-76
2022/11/20 01:16:36;;;;;;;0.98;0.80;;;;;;;5.51;41.30;91744.88;5091938;28;20032;-75
2022/11/20 01:19:05;;;;;;;1.85;1.05;;;;;;;5.58;41.05;91738.31;5075955;28;20083;-75
2022/11/20 01:21:36;;;;;;;1.77;0.75;;;;;;;5.50;41.19;91746.69;5072873;28;20033;-75
2022/11/20 01:24:04;;;;;;;1.33;0.80;;;;;;;5.49;41.15;91746.94;5071874;28;20032;-76
2022/11/20 01:26:32;;;;;;;0.82;0.80;;;;;;;5.59;40.25;91752.84;5072800;28;20115;-76
2022/11/20 01:28:59;;;;;;;3.10;0.85;;;;;;;5.59;40.80;91747.66;5071501;28;20186;-75
2022/11/20 01:31:27;;;;;;;0.88;0.80;;;;;;;5.50;41.07;91751.88;5073780;28;20117;-75
2022/11/20 01:33:55;;;;;;;0.80;0.80;;;;;;;5.45;41.24;91751.94;5072512;28;20425;-75
2022/11/20 01:36:23;;;;;;;0.98;0.90;;;;;;;5.46;41.39;91756.06;5071474;28;20410;-75
2022/11/20 01:38:52;;;;;;;0.90;0.70;;;;;;;5.43;41.42;91752.19;5060569;28;20032;-76
2022/11/20 01:44:04;;;;;;;1.17;0.90;;;;;;;5.51;41.11;91753.41;5091081;28;20028;-75
2022/11/20 01:46:31;;;;;;;1.00;0.85;;;;;;;5.44;41.39;91758.16;5091390;28;20119;-74
2022/11/20 01:49:07;;;;;;;1.25;0.80;;;;;;;5.51;41.09;91753.41;5090687;28;20040;-75
2022/11/20 01:51:39;;;;;;;0.80;0.80;;;;;;;5.48;41.51;91748.00;5092716;28;20059;-75
2022/11/20 01:54:10;;;;;;;1.15;0.82;;;;;;;5.58;41.05;91748.72;5089379;28;20502;-75
2022/11/20 01:56:38;;;;;;;0.90;0.80;;;;;;;5.57;41.06;91762.72;5091161;28;20039;-75
2022/11/20 01:59:07;;;;;;;0.88;0.80;;;;;;;5.48;41.77;91758.41;5091561;28;20027;-75
2022/11/20 02:01:33;;;;;;;0.60;0.60;;;;;;;5.40;41.58;91757.16;5091181;28;20032;-75
2022/11/20 02:04:00;;;;;;;1.17;0.75;;;;;;;5.36;41.60;91750.97;5090653;28;20040;-74
2022/11/20 02:06:32;;;;;;;1.10;0.80;;;;;;;5.25;41.69;91754.69;5092429;28;20032;-75
2022/11/20 02:08:58;;;;;;;0.75;0.75;;;;;;;5.24;42.31;91751.28;5087647;28;20043;-75
2022/11/20 02:11:23;;;;;;;0.80;0.80;;;;;;;5.13;42.36;91753.19;5079580;28;20036;-75
2022/11/20 02:13:50;;;;;;;0.98;0.80;;;;;;;5.06;42.49;91760.50;5071854;28;20673;-75
2022/11/20 02:16:23;;;;;;;0.60;0.60;;;;;;;5.36;41.81;91754.34;5070966;28;20370;-75
2022/11/20 02:18:50;;;;;;;0.77;0.77;;;;;;;5.24;42.25;91766.88;5073204;28;20039;-75
2022/11/20 02:21:46;;;;;;;0.93;0.82;;;;;;;5.19;42.68;91766.91;5070468;28;20032;-74
2022/11/20 02:24:18;;;;;;;0.90;0.75;;;;;;;5.16;42.70;91763.03;5072851;28;20451;-74
2022/11/20 02:26:50;;;;;;;1.05;0.85;;;;;;;5.13;42.53;91757.59;5070375;28;20047;-74
2022/11/20 02:29:22;;;;;;;0.90;0.80;;;;;;;5.06;42.90;91768.28;5073752;28;20162;-76
2022/11/20 02:31:48;;;;;;;0.80;0.80;;;;;;;5.01;43.03;91765.72;5071672;28;20028;-75
2022/11/20 02:34:13;;;;;;;1.02;0.75;;;;;;;4.99;43.29;91768.56;5085794;28;20420;-75
2022/11/20 02:36:42;;;;;;;1.35;0.90;;;;;;;4.96;43.09;91765.75;5107634;28;20039;-75
2022/11/20 02:39:11;;;;;;;0.60;0.60;;;;;;;4.93;43.61;91774.06;5091222;28;20455;-75
2022/11/20 02:41:38;;;;;;;0.93;0.88;;;;;;;4.99;43.10;91773.00;5090265;28;20512;-75
2022/11/20 02:44:04;;;;;;;2.08;0.80;;;;;;;5.00;43.16;91767.56;5091627;28;20020;-75
2022/11/20 02:46:31;;;;;;;0.82;0.80;;;;;;;5.08;42.87;91776.56;5062656;28;20472;-75
2022/11/20 02:48:56;;;;;;;0.63;0.63;;;;;;;5.10;42.86;91774.47;5053519;28;20040;-75
2022/11/20 02:51:23;;;;;;;0.88;0.80;;;;;;;5.20;42.90;91769.25;5084078;28;20024;-75
2022/11/20 02:53:48;;;;;;;0.80;0.80;;;;;;;5.16;42.66;91770.06;5090173;28;20489;-76
2022/11/20 02:56:14;;;;;;;1.50;1.00;;;;;;;5.15;42.57;91774.44;5087625;28;20081;-76
2022/11/20 02:58:39;;;;;;;1.10;0.95;;;;;;;5.07;43.10;91775.03;5073250;28;20086;-75
2022/11/20 03:01:05;;;;;;;1.30;1.00;;;;;;;5.02;43.19;91777.63;5088616;28;20153;-75
2022/11/20 03:03:30;;;;;;;0.82;0.75;;;;;;;4.96;43.42;91774.31;5075679;28;20029;-75
2022/11/20 03:05:59;;;;;;;0.60;0.60;;;;;;;4.91;43.32;91771.75;5069893;28;20036;-75
2022/11/20 03:08:25;;;;;;;0.80;0.80;;;;;;;4.89;43.39;91781.63;5071129;28;20032;-75
2022/11/20 03:10:50;;;;;;;1.20;0.70;;;;;;;4.96;43.25;91778.72;5070907;28;20040;-75
2022/11/20 03:13:16;;;;;;;0.70;0.70;;;;;;;5.05;42.67;91771.94;5080015;28;20040;-75
2022/11/20 03:15:41;;;;;;;0.80;0.70;;;;;;;5.06;42.17;91765.69;5089908;28;20046;-75
2022/11/20 03:18:07;;;;;;;1.00;0.80;;;;;;;5.03;43.10;91768.81;5090076;28;20119;-75
2022/11/20 03:20:34;;;;;;;0.82;0.73;;;;;;;5.02;42.67;91772.44;5103796;28;20087;-75
2022/11/20 03:23:00;;;;;;;0.70;0.63;;;;;;;5.02;42.49;91767.25;5076346;28;20142;-75
2022/11/20 03:25:25;;;;;;;1.00;0.90;;;;;;;4.95;43.28;91771.97;5074918;28;20059;-74
2022/11/20 03:27:51;;;;;;;1.05;0.70;;;;;;;4.95;43.22;91765.00;5073520;28;20036;-75
2022/11/20 03:30:16;;;;;;;1.35;0.85;;;;;;;4.90;43.42;91769.41;5074892;28;20037;-75
2022/11/20 03:32:42;;;;;;;1.20;0.90;;;;;;;4.92;42.74;91772.53;5090536;28;20378;-75
2022/11/20 03:35:08;;;;;;;0.95;0.85;;;;;;;4.91;43.02;91773.56;5076039;28;20025;-75
2022/11/20 03:37:34;;;;;;;1.20;0.90;;;;;;;4.85;43.37;91774.66;5074756;28;20173;-75
2022/11/20 03:39:59;;;;;;;0.52;0.52;;;;;;;4.83;43.78;91769.72;5074947;28;20112;-75
2022/11/20 03:45:09;;;;;;;1.25;0.82;;;;;;;4.72;43.87;91774.16;5091892;28;20135;-75
2022/11/20 03:47:34;;;;;;;0.88;0.80;;;;;;;4.68;44.07;91772.38;5094749;28;20134;-75
2022/11/20 03:50:00;;;;;;;0.80;0.80;;;;;;;4.63;44.89;91769.81;5093770;28;20035;-75
2022/11/20 03:52:25;;;;;;;1.08;0.80;;;;;;;4.50;45.59;91776.34;5074220;28;20067;-75
2022/11/20 03:54:51;;;;;;;0.70;0.70;;;;;;;4.45;46.30;91776.38;5093281;28;20048;-75
2022/11/20 03:57:16;;;;;;;0.93;0.70;;;;;;;4.42;45.63;91777.69;5093462;28;20036;-75
2022/11/20 03:59:42;;;;;;;0.90;0.63;;;;;;;4.36;45.71;91773.56;5092676;28;20028;-74
2022/11/20 04:02:08;;;;;;;0.75;0.70;;;;;;;4.35;45.12;91777.19;5093285;28;20044;-74
2022/11/20 04:04:33;;;;;;;0.77;0.77;;;;;;;4.38;44.64;91779.25;5060106;28;20047;-75
2022/11/20 04:06:59;;;;;;;0.93;0.77;;;;;;;4.35;45.44;91770.19;5073023;28;20036;-75
2022/11/20 04:09:24;;;;;;;0.65;0.60;;;;;;;4.30;45.69;91778.00;5074220;28;20480;-75
2022/11/20 04:11:50;;;;;;;0.60;0.60;;;;;;;4.26;45.47;91782.16;5073018;28;20032;-74
2022/11/20 04:14:16;;;;;;;0.63;0.63;;;;;;;4.24;45.04;91783.47;5056297;28;20037;-75
2022/11/20 04:16:42;;;;;;;0.75;0.75;;;;;;;4.34;44.50;91783.41;5086337;28;20032;-74
2022/11/20 04:19:14;;;;;;;1.13;0.90;;;;;;;4.25;45.47;91782.41;5092938;28;20473;-75
2022/11/20 04:21:40;;;;;;;0.55;0.55;;;;;;;4.37;43.80;91773.31;5094383;28;20039;-74
2022/11/20 04:24:07;;;;;;;1.33;0.77;;;;;;;4.31;44.89;91778.75;5093093;28;20036;-74
2022/11/20 04:26:33;;;;;;;0.98;0.80;;;;;;;4.18;46.41;91777.50;5090270;28;20026;-75
2022/11/20 04:29:01;;;;;;;0.70;0.70;;;;;;;4.08;46.55;91778.31;5092805;28;20048;-75
2022/11/20 04:31:33;;;;;;;0.60;0.60;;;;;;;3.97;47.28;91784.56;5091144;28;20060;-75
2022/11/20 04:34:06;;;;;;;0.83;0.73;;;;;;;3.86;47.87;91783.03;5093953;28;20027;-74
2022/11/20 04:36:32;;;;;;;1.10;0.90;;;;;;;3.76;48.34;91783.81;5087626;28;20758;-74
2022/11/20 04:39:01;;;;;;;1.55;0.98;;;;;;;3.67;48.50;91785.34;5073737;28;20032;-75
2022/11/20 04:41:35;;;;;;;0.75;0.75;;;;;;;3.60;48.47;91783.03;5072370;28;20548;-74
2022/11/20 04:44:03;;;;;;;0.95;0.80;;;;;;;3.54;48.64;91779.69;5072330;28;20032;-76
2022/11/20 04:46:40;;;;;;;0.70;0.70;;;;;;;3.48;48.86;91775.53;5074754;28;20395;-74
2022/11/20 04:49:06;;;;;;;1.02;0.70;;;;;;;3.51;48.11;91776.84;5093650;28;20292;-75
2022/11/20 04:51:33;;;;;;;0.80;0.75;;;;;;;3.59;47.01;91778.13;5090040;28;20521;-75
2022/11/20 04:53:58;;;;;;;0.70;0.70;;;;;;;3.77;46.40;91772.41;5092274;28;20444;-74
2022/11/20 04:56:24;;;;;;;0.70;0.70;;;;;;;3.90;45.93;91782.25;5093970;28;20032;-75
2022/11/20 04:58:50;;;;;;;0.68;0.63;;;;;;;4.11;45.60;91782.97;5075975;28;20068;-75
2022/11/20 05:01:18;;;;;;;0.75;0.75;;;;;;;4.18;45.15;91774.91;5071959;28;20414;-75
2022/11/20 05:03:44;;;;;;;1.00;0.77;;;;;;;4.24;44.58;91789.41;5089015;28;20123;-75
2022/11/20 05:06:12;;;;;;;0.70;0.70;;;;;;;4.27;45.03;91786.28;5092539;28;20028;-75
2022/11/20 05:08:38;;;;;;;2.13;0.68;;;;;;;4.27;44.75;91794.06;5078487;28;20531;-75
2022/11/20 05:11:13;;;;;;;1.02;0.75;;;;;;;4.26;44.93;91802.09;5092149;28;20051;-76
2022/11/20 05:13:39;;;;;;;0.60;0.60;;;;;;;4.26;45.06;91804.69;5092023;28;20043;-75
2022/11/20 05:16:07;;;;;;;0.75;0.70;;;;;;;4.19;45.64;91802.38;5092011;28;20032;-75
2022/11/20 05:18:34;;;;;;;0.98;0.82;;;;;;;4.11;45.98;91802.91;5078392;28;20039;-75
2022/11/20 05:20:59;;;;;;;1.25;0.85;;;;;;;4.07;45.56;91802.66;5071602;28;20045;-75
2022/11/20 05:23:27;;;;;;;1.38;0.70;;;;;;;4.03;47.20;91806.03;5072922;28;20074;-75
2022/11/20 05:25:56;;;;;;;1.30;0.90;;;;;;;3.93;47.60;91809.41;5072970;28;20732;-74
2022/11/20 05:28:22;;;;;;;1.00;0.70;;;;;;;3.81;48.33;91814.09;5074116;28;20489;-75
2022/11/20 05:30:48;;;;;;;1.02;0.93;;;;;;;3.69;48.73;91809.19;5072722;28;20024;-75
2022/11/20 05:33:14;;;;;;;0.57;0.57;;;;;;;3.60;49.06;91810.72;5071590;28;20045;-75
2022/11/20 05:35:40;;;;;;;0.95;0.70;;;;;;;3.51;49.30;91810.47;5071317;28;20047;-75
2022/11/20 05:38:06;;;;;;;1.08;0.88;;;;;;;3.44;49.20;91815.91;5084373;28;20031;-75
2022/11/20 05:40:31;;;;;;;0.80;0.70;;;;;;;3.42;49.12;91819.78;5073182;28;20501;-74
2022/11/20 05:42:57;;;;;;;0.65;0.65;;;;;;;3.39;48.90;91818.50;5108185;28;20040;-74
2022/11/20 05:45:22;;;;;;;0.85;0.75;;;;;;;3.35;49.77;91820.03;5091441;28;20058;-75
2022/11/20 05:47:48;;;;;;;0.70;0.70;;;;;;;3.35;48.92;91825.22;5086376;28;20037;-74
2022/11/20 05:50:14;;;;;;;1.20;1.00;;;;;;;3.33;48.81;91827.28;5089637;28;20042;-74
2022/11/20 05:52:40;;;;;;;1.20;0.70;;;;;;;3.33;48.96;91827.28;5091492;28;20102;-74
2022/11/20 05:55:06;;;;;;;1.20;1.00;;;;;;;3.35;49.05;91830.38;5092426;28;20036;-75
2022/11/20 05:57:32;;;;;;;1.25;0.93;;;;;;;3.34;48.73;91829.63;5087687;28;20427;-76
2022/11/20 05:59:57;;;;;;;0.90;0.80;;;;;;;3.32;49.09;91834.28;5053357;28;20031;-76
2022/11/20 06:02:23;;;;;;;2.90;0.75;;;;;;;3.35;49.38;91835.56;5059869;28;20101;-76
2022/11/20 06:04:48;;;;;;;1.10;0.80;;;;;;;3.36;49.05;91839.72;5065733;28;20036;-76
2022/11/20 06:07:14;;;;;;;1.02;0.93;;;;;;;3.32;49.18;91833.50;5071900;28;20025;-75
2022/11/20 06:09:39;;;;;;;0.90;0.80;;;;;;;3.30;49.39;91844.09;5071997;28;20440;-76
2022/11/20 06:12:05;;;;;;;0.93;0.85;;;;;;;3.28;48.90;91846.16;5090044;28;20071;-75
2022/11/20 06:14:31;;;;;;;0.90;0.82;;;;;;;3.37;49.25;91846.44;5087751;28;20077;-75
2022/11/20 06:16:56;;;;;;;0.85;0.80;;;;;;;3.28;49.37;91846.16;5078772;28;20050;-75
2022/11/20 06:19:22;;;;;;;1.70;1.00;;;;;;;3.20;49.90;91851.06;5056296;28;20040;-75
2022/11/20 06:21:49;;;;;;;0.60;0.60;;;;;;;3.13;50.40;91844.34;5070644;28;20024;-75
2022/11/20 06:24:15;;;;;;;0.77;0.70;;;;;;;3.06;50.23;91859.31;5083836;28;20048;-75
2022/11/20 06:26:41;;;;;;;0.95;0.80;;;;;;;3.04;50.58;91856.22;5092140;28;20032;-75
2022/11/20 06:29:06;;;;;;;1.02;0.88;;;;;;;3.02;51.12;91852.34;5090833;28;20538;-75
2022/11/20 06:31:37;;;;;;;0.77;0.70;;;;;;;3.00;50.79;91865.50;5091733;28;20078;-75
2022/11/20 06:34:06;;;;;;;0.80;0.70;;;;;;;2.97;50.90;91866.00;5088777;28;20051;-75
2022/11/20 06:36:32;;;;;;;0.70;0.70;;;;;;;2.95;50.85;91869.88;5090203;28;20040;-75
2022/11/20 06:38:57;;;;;;;0.70;0.70;;;;;;;2.97;50.44;91870.41;5073542;28;20047;-75
2022/11/20 06:41:23;;;;;;;1.17;0.80;;;;;;;3.05;50.21;91872.50;5090656;28;20417;-75
2022/11/20 06:43:49;;;;;;;0.68;0.68;;;;;;;3.06;50.74;91864.50;5092104;28;20096;-75
2022/11/20 06:46:17;;;;;;;0.75;0.75;;;;;;;3.09;51.01;91882.09;5078738;28;20081;-74
2022/11/20 06:48:43;;;;;;;1.55;1.00;;;;;;;3.06;50.92;91869.69;5077336;28;20063;-75
2022/11/20 06:51:09;;;;;;;1.42;0.90;;;;;;;3.07;50.64;91881.56;5053512;28;20020;-75
2022/11/20 06:53:35;;;;;;;0.70;0.70;;;;;;;3.96;49.61;91871.84;5091040;28;20139;-76
2022/11/20 06:56:01;;;;;;;0.77;0.77;;;;;;;5.17;47.53;91883.94;5090373;28;20059;-78
2022/11/20 06:58:28;;;;;;;1.38;0.98;;;;;;;6.32;44.98;91877.72;5088338;28;20701;-76
2022/11/20 07:00:57;;;;;;;1.98;0.80;;;;;;;7.44;42.82;91881.66;5055538;28;20047;-76
2022/11/20 07:03:23;;;;;;;1.00;0.90;;;;;;;8.54;40.42;91877.94;5089305;28;20034;-76
2022/11/20 07:05:48;;;;;;;1.13;0.98;;;;;;;9.52;37.60;91885.44;5105837;28;20110;-76
2022/11/20 07:08:14;;;;;;;1.83;1.10;;;;;;;10.35;35.75;91889.63;5094275;28;20131;-76
2022/11/20 07:10:39;;;;;;;1.17;1.00;;;;;;;11.11;35.56;91888.78;5094735;28;20497;-75
2022/11/20 07:13:06;;;;;;;1.63;1.00;;;;;;;11.76;34.08;91888.00;5097797;28;20016;-76
2022/11/20 07:15:32;;;;;;;1.70;1.20;;;;;;;12.60;32.72;91887.81;5085783;28;20028;-76
2022/11/20 07:17:59;;;;;;;1.17;1.08;;;;;;;13.50;29.70;91887.63;5084968;28;20071;-76
2022/11/20 07:20:25;;;;;;;1.05;0.80;;;;;;;14.27;28.33;91902.44;5072238;28;20459;-76
2022/11/20 07:22:55;;;;;;;1.00;0.90;;;;;;;14.93;27.32;91905.09;5083326;28;20066;-78
2022/11/20 07:25:22;;;;;;;1.30;0.90;;;;;;;15.77;26.60;91902.09;5080390;28;20564;-77
2022/11/20 07:27:47;;;;;;;0.85;0.80;;;;;;;16.44;25.14;91904.34;5072733;28;20028;-77
2022/11/20 07:30:14;;;;;;;0.93;0.77;;;;;;;16.84;24.94;91914.91;5088953;28;20043;-77
2022/11/20 07:32:40;;;;;;;0.75;0.73;;;;;;;17.27;23.39;91910.69;5104819;28;20036;-78
2022/11/20 07:35:05;;;;;;;0.70;0.65;;;;;;;17.82;22.80;91913.47;5091300;28;20035;-77
2022/11/20 07:37:34;;;;;;;0.80;0.70;;;;;;;18.12;23.37;91912.22;5052744;28;20059;-78
2022/11/20 07:39:59;;;;;;;0.80;0.80;;;;;;;18.79;22.00;91914.72;5085237;28;20036;-77
2022/11/20 07:42:25;;;;;;;0.88;0.63;;;;;;;19.16;21.60;91917.63;5068845;28;20451;-78
2022/11/20 07:44:51;;;;;;;1.20;0.70;;;;;;;19.32;21.38;91909.59;5051098;28;20098;-78
2022/11/20 07:47:16;;;;;;;0.77;0.60;;;;;;;19.57;21.02;91910.00;5088083;28;20061;-77
2022/11/20 07:49:42;;;;;;;0.75;0.75;;;;;;;19.92;20.88;91915.09;5087659;28;20323;-77
2022/11/20 07:52:07;;;;;;;0.70;0.70;;;;;;;20.42;20.75;91912.34;5086826;28;20517;-77
2022/11/20 07:54:33;;;;;;;0.70;0.60;;;;;;;20.51;19.25;91917.38;5090046;28;20079;-78
2022/11/20 07:56:58;;;;;;;0.82;0.80;;;;;;;21.11;19.46;91912.00;5086910;28;20424;-77
2022/11/20 07:59:24;;;;;;;0.73;0.70;;;;;;;21.40;19.14;91917.59;5090322;28;20036;-77
2022/11/20 08:01:50;;;;;;;1.05;0.90;;;;;;;21.87;18.81;91923.34;5082860;28;20088;-77
2022/11/20 08:04:16;;;;;;;1.02;0.80;;;;;;;22.07;18.20;91927.28;5069364;28;20085;-77
2022/11/20 08:06:41;;;;;;;0.80;0.80;;;;;;;22.63;17.44;91936.00;5089364;28;20040;-77
2022/11/20 08:09:07;;;;;;;0.80;0.80;;;;;;;22.40;17.67;91933.59;5091564;28;20059;-78
2022/11/20 08:14:17;;;;;;;1.00;0.90;;;;;;;23.35;15.95;91945.03;5083670;28;20044;-78
2022/11/20 08:16:45;;;;;;;0.85;0.80;;;;;;;23.48;16.73;91951.56;5089729;28;20047;-77
2022/11/20 08:19:12;;;;;;;1.83;0.80;;;;;;;24.03;15.66;91945.09;5088127;28;20116;-76
2022/11/20 08:21:38;;;;;;;0.80;0.80;;;;;;;23.55;15.96;91947.34;5089898;28;20028;-76
2022/11/20 08:24:05;;;;;;;0.80;0.80;;;;;;;23.19;16.69;91952.59;5084717;28;20028;-76
2022/11/20 08:26:30;;;;;;;0.93;0.80;;;;;;;23.43;16.39;91957.25;5086010;28;20024;-76
2022/11/20 08:28:57;;;;;;;0.65;0.65;;;;;;;24.07;16.42;91947.75;5091523;28;20031;-77
2022/11/20 08:31:24;;;;;;;0.98;0.73;;;;;;;24.37;14.96;91954.63;5092514;28;20036;-76
2022/11/20 08:33:50;;;;;;;3.00;1.00;;;;;;;22.70;17.25;91949.38;5079776;28;20040;-76
2022/11/20 08:36:16;;;;;;;0.80;0.73;;;;;;;21.39;17.98;91954.13;5088984;28;20046;-76
2022/11/20 08:38:46;;;;;;;0.75;0.70;;;;;;;19.89;19.68;91957.53;5082958;28;20481;-77
2022/11/20 08:41:24;;;;;;;1.23;0.70;;;;;;;20.10;19.48;91957.09;5086890;28;20085;-76
2022/11/20 08:43:55;;;;;;;0.95;0.60;;;;;;;19.90;18.97;91956.41;5072754;28;20046;-76
2022/11/20 08:46:21;;;;;;;1.17;0.75;;;;;;;20.34;19.48;91951.34;5092964;28;20551;-76
2022/11/20 08:48:47;;;;;;;0.30;0.30;;;;;;;20.52;19.13;91959.56;5090395;28;20047;-76
2022/11/20 08:51:14;;;;;;;0.57;0.50;;;;;;;20.56;19.51;91963.06;5092565;28;20036;-76
2022/11/20 08:53:40;;;;;;;2.13;0.70;;;;;;;19.84;18.88;91969.25;5090645;28;20490;-76
2022/11/20 08:56:05;;;;;;;0.43;0.43;;;;;;;19.23;20.61;91970.84;5081559;28;20036;-77
2022/11/20 08:58:31;;;;;;;0.57;0.50;;;;;;;19.42;20.85;91963.97;5092317;28;20032;-76
2022/11/20 09:00:57;;;;;;;0.50;0.50;;;;;;;19.57;20.17;91963.09;5091895;28;20418;-76
2022/11/20 09:03:23;;;;;;;0.63;0.60;;;;;;;19.07;20.10;91960.34;5076652;28;20486;-76
2022/11/20 09:05:48;;;;;;;0.80;0.57;;;;;;;18.79;20.44;91957.13;5090528;28;20036;-76
2022/11/20 09:08:14;;;;;;;1.48;0.80;;;;;;;18.00;22.03;91950.94;5090685;28;20085;-76
2022/11/20 09:10:39;;;;;;;0.60;0.60;;;;;;;18.78;20.74;91963.53;5091345;28;20552;-77
2022/11/20 09:13:05;;;;;;;1.30;0.80;;;;;;;17.10;22.74;91958.59;5091531;28;20036;-76
2022/11/20 09:15:31;;;;;;;0.90;0.73;;;;;;;17.24;23.69;91958.19;5081887;28;20024;-76
2022/11/20 09:17:59;;;;;;;0.88;0.70;;;;;;;17.41;23.65;91954.47;5078701;28;20044;-76
2022/11/20 09:20:26;;;;;;;0.85;0.77;;;;;;;17.38;24.09;91953.28;5090439;28;20527;-76
2022/11/20 09:22:52;;;;;;;1.23;0.80;;;;;;;16.76;23.96;91954.66;5093450;28;20027;-76
2022/11/20 09:25:17;;;;;;;1.98;0.90;;;;;;;16.10;24.57;91966.38;5086813;28;20111;-76
2022/11/20 09:27:45;;;;;;;0.50;0.50;;;;;;;16.23;23.69;91958.13;5085136;28;20064;-76
2022/11/20 09:30:12;;;;;;;0.70;0.70;;;;;;;15.77;24.13;91959.38;5088926;28;20031;-76
2022/11/20 09:32:42;;;;;;;3.30;1.08;;;;;;;17.03;23.46;91953.13;5091104;28;20032;-76
2022/11/20 09:35:08;;;;;;;1.75;1.10;;;;;;;17.16;22.96;91951.97;5089925;28;20044;-75
2022/11/20 09:37:34;;;;;;;1.38;0.50;;;;;;;17.82;21.35;91952.44;5084403;28;20033;-76
2022/11/20 09:39:59;;;;;;;0.88;0.70;;;;;;;17.62;23.11;91956.84;5079883;28;20040;-76
2022/11/20 09:42:47;;;;;;;1.00;0.70;;;;;;;17.08;23.29;91974.03;5087957;28;20032;-76
2022/11/20 09:45:41;;;;;;;0.70;0.70;;;;;;;17.18;21.93;91959.53;5080304;28;20036;-78
2022/11/20 09:48:15;;;;;;;0.70;0.70;;;;;;;16.60;22.16;91960.66;5083895;28;20035;-78
2022/11/20 09:51:05;;;;;;;0.63;0.63;;;;;;;14.77;23.04;91951.59;5082140;28;20036;-81
2022/11/20 09:54:12;;;;;;;0.80;0.80;;;;;;;13.71;24.71;91958.69;5086755;28;20501;-78
2022/11/20 09:56:53;;;;;;;0.60;0.60;;;;;;;13.86;25.51;91946.84;5084053;28;20440;-79
2022/11/20 09:59:46;;;;;;;1.13;0.70;;;;;;;13.53;25.04;91955.38;5091082;28;20026;-78
2022/11/20 10:02:25;;;;;;;1.00;0.70;;;;;;;13.17;26.56;91960.28;5075219;28;20032;-77
2022/11/20 10:05:19;;;;;;;0.77;0.70;;;;;;;12.55;27.48;91949.13;5089564;28;20099;-77
2022/11/20 10:07:55;;;;;;;0.80;0.80;;;;;;;11.97;28.90;91955.59;5087041;28;20503;-79
2022/11/20 10:10:40;;;;;;;1.35;0.95;;;;;;;12.47;26.48;91947.28;5085666;28;20036;-77
2022/11/20 10:13:06;;;;;;;1.33;0.90;;;;;;;12.37;27.50;91947.59;5082089;28;20036;-76
2022/11/20 10:16:00;;;;;;;1.75;1.10;;;;;;;12.28;27.23;91952.84;5078663;28;20032;-76
2022/11/20 10:19:28;;;;;;;1.02;0.80;;;;;;;12.05;27.82;91945.13;5065307;28;20040;-77
2022/11/20 10:22:12;;;;;;;1.42;0.80;;;;;;;11.63;27.29;91949.19;5012176;28;20077;-76
2022/11/20 10:24:55;;;;;;;0.98;0.85;;;;;;;11.40;28.04;91938.03;5015215;28;20033;-77
2022/11/20 10:28:14;;;;;;;0.60;0.60;;;;;;;11.49;28.63;91941.44;5076017;28;20619;-77
2022/11/20 10:30:45;;;;;;;0.73;0.73;;;;;;;12.00;28.68;91936.63;5019650;28;20217;-77
2022/11/20 10:33:21;;;;;;;1.65;1.20;;;;;;;12.79;28.10;91942.59;5082043;28;20505;-77
2022/11/20 10:36:00;;;;;;;0.85;0.85;;;;;;;12.50;26.85;91928.28;5108021;28;20509;-78
2022/11/20 10:38:34;;;;;;;0.75;0.73;;;;;;;11.55;27.78;91940.25;5083814;28;20078;-77
2022/11/20 10:43:50;;;;;;;1.95;0.70;;;;;;;11.83;29.21;91943.38;5076303;28;20457;-78
2022/11/20 10:46:21;;;;;;;1.10;0.85;;;;;;;12.11;28.77;91939.72;5088019;28;20040;-77
2022/11/20 10:48:48;;;;;;;1.48;0.93;;;;;;;12.16;27.82;91924.63;5091679;28;20142;-78
2022/11/20 10:51:16;;;;;;;1.05;0.80;;;;;;;11.90;27.31;91944.81;5086684;28;20565;-78
2022/11/20 10:53:55;;;;;;;0.98;0.80;;;;;;;11.77;26.69;91941.97;5076785;28;20087;-78
2022/11/20 10:56:45;;;;;;;0.80;0.80;;;;;;;11.71;27.77;91940.59;5078303;28;20044;-78
2022/11/20 10:59:32;;;;;;;0.93;0.77;;;;;;;11.65;29.22;91947.03;5084289;28;20119;-77
2022/11/20 11:01:58;;;;;;;0.73;0.73;;;;;;;11.40;28.46;91917.06;5085644;28;20463;-76
2022/11/20 11:04:38;;;;;;;1.38;1.08;;;;;;;11.50;30.02;91929.13;5077809;28;20063;-77
2022/11/20 11:07:23;;;;;;;0.98;0.85;;;;;;;12.46;27.18;91937.88;5078487;28;20366;-77
2022/11/20 11:09:57;;;;;;;1.00;0.90;;;;;;;12.47;25.56;91918.41;5085473;28;20035;-77
2022/11/20 11:12:28;;;;;;;0.70;0.70;;;;;;;11.93;27.27;91925.81;5083001;28;20043;-77
2022/11/20 11:14:56;;;;;;;0.90;0.80;;;;;;;11.64;27.24;91927.13;5088351;28;20028;-77
2022/11/20 11:17:27;;;;;;;1.02;0.85;;;;;;;11.84;28.58;91918.72;5087142;28;20062;-77
2022/11/20 11:20:11;;;;;;;1.23;0.90;;;;;;;12.00;28.76;91919.06;5082986;28;20040;-76
2022/11/20 11:22:45;;;;;;;1.52;0.90;;;;;;;11.96;27.99;91896.38;5073636;28;20063;-76
2022/11/20 11:25:30;;;;;;;2.17;1.20;;;;;;;11.75;27.50;91902.16;5077925;28;20485;-78
2022/11/20 11:28:03;;;;;;;2.15;1.20;;;;;;;12.02;29.33;91908.22;5079821;28;20028;-76
2022/11/20 11:30:40;;;;;;;1.05;0.93;;;;;;;12.62;28.14;91904.78;5088908;28;20032;-77
2022/11/20 11:33:20;;;;;;;2.13;1.20;;;;;;;12.55;27.73;91898.50;5068900;28;20029;-76
2022/11/20 11:35:48;;;;;;;1.40;1.00;;;;;;;13.21;27.51;91898.13;5074555;28;20382;-76
2022/11/20 11:38:23;;;;;;;0.68;0.68;;;;;;;12.87;26.21;91891.91;5085931;28;20036;-77
2022/11/20 11:40:48;;;;;;;0.70;0.70;;;;;;;12.95;27.41;91887.69;5102753;28;20036;-78
2022/11/20 11:46:32;;;;;;;0.80;0.80;;;;;;;14.73;25.83;91893.53;5083760;28;20401;-75
2022/11/20 11:49:15;;;;;;;1.10;0.88;;;;;;;14.35;25.35;91889.22;5092446;28;20435;-75
2022/11/20 11:51:58;;;;;;;0.77;0.77;;;;;;;14.59;26.30;91887.78;5088675;28;20374;-75
2022/11/20 11:54:30;;;;;;;1.40;0.80;;;;;;;15.55;26.29;91884.06;5093441;28;20044;-76
2022/11/20 11:57:01;;;;;;;0.93;0.87;;;;;;;16.09;24.66;91881.13;5092649;28;20032;-75
2022/11/20 12:00:04;;;;;;;1.37;0.93;;;;;;;16.37;24.63;91881.16;5093446;28;20424;-76
2022/11/20 12:02:35;;;;;;;;;;;;;;;16.09;24.10;91875.09;5093288;28;20284;-75